sensor_id;sensor_type;location;lat;lon;timestamp;pressure;altitude;pressure_sealevel;temperature;humidity
50550;BME280;36505;52.512;13.460;2022-12-31T00:01:24;100195.34;;;8.39;92.97
50550;BME280;36505;52.512;13.460;2022-12-31T00:03:50;100190.72;;;8.39;92.85
50550;BME280;36505;52.512;13.460;2022-12-31T00:06:31;100191.63;;;8.45;92.30
50550;BME280;36505;52.512;13.460;2022-12-31T00:08:58;100182.53;;;8.39;92.52
50550;BME280;36505;52.512;13.460;2022-12-31T00:11:25;100195.44;;;8.44;92.54
50550;BME280;36505;52.512;13.460;2022-12-31T00:13:51;100197.41;;;8.48;92.29
50550;BME280;36505;52.512;13.460;2022-12-31T00:16:26;100204.75;;;8.48;91.97
50550;BME280;36505;52.512;13.460;2022-12-31T00:18:54;100205.34;;;8.50;91.88
50550;BME280;36505;52.512;13.460;2022-12-31T00:21:20;100211.41;;;8.52;92.09
50550;BME280;36505;52.512;13.460;2022-12-31T00:23:46;100215.22;;;8.51;92.02
50550;BME280;36505;52.512;13.460;2022-12-31T00:26:23;100219.00;;;8.50;92.09
50550;BME280;36505;52.512;13.460;2022-12-31T00:28:50;100225.53;;;8.49;92.08
50550;BME280;36505;52.512;13.460;2022-12-31T00:31:17;100217.34;;;8.49;91.73
50550;BME280;36505;52.512;13.460;2022-12-31T00:33:43;100220.91;;;8.49;91.64
50550;BME280;36505;52.512;13.460;2022-12-31T00:36:14;100226.59;;;8.48;91.60
50550;BME280;36505;52.512;13.460;2022-12-31T00:38:41;100234.78;;;8.48;91.58
50550;BME280;36505;52.512;13.460;2022-12-31T00:41:08;100226.59;;;8.48;91.86
50550;BME280;36505;52.512;13.460;2022-12-31T00:43:34;100223.31;;;8.46;91.72
50550;BME280;36505;52.512;13.460;2022-12-31T00:46:00;100217.47;;;8.42;91.21
50550;BME280;36505;52.512;13.460;2022-12-31T00:48:26;100218.00;;;8.39;91.60
50550;BME280;36505;52.512;13.460;2022-12-31T00:50:52;100216.56;;;8.37;91.79
50550;BME280;36505;52.512;13.460;2022-12-31T00:53:19;100201.38;;;8.29;91.89
50550;BME280;36505;52.512;13.460;2022-12-31T00:55:44;100214.41;;;8.27;92.12
50550;BME280;36505;52.512;13.460;2022-12-31T00:58:09;100220.38;;;8.24;91.95
50550;BME280;36505;52.512;13.460;2022-12-31T01:00:36;100223.34;;;8.22;92.16
50550;BME280;36505;52.512;13.460;2022-12-31T01:03:01;100233.09;;;8.18;92.32
50550;BME280;36505;52.512;13.460;2022-12-31T01:05:31;100237.94;;;8.16;92.41
50550;BME280;36505;52.512;13.460;2022-12-31T01:07:56;100249.59;;;8.12;92.74
50550;BME280;36505;52.512;13.460;2022-12-31T01:10:22;100249.59;;;8.12;92.61
50550;BME280;36505;52.512;13.460;2022-12-31T01:13:06;100258.56;;;8.12;92.88
50550;BME280;36505;52.512;13.460;2022-12-31T01:15:35;100258.00;;;8.10;93.07
50550;BME280;36505;52.512;13.460;2022-12-31T01:18:03;100263.56;;;8.15;92.92
50550;BME280;36505;52.512;13.460;2022-12-31T01:20:29;100266.16;;;8.22;92.90
50550;BME280;36505;52.512;13.460;2022-12-31T01:22:54;100266.84;;;8.29;92.68
50550;BME280;36505;52.512;13.460;2022-12-31T01:25:20;100263.03;;;8.30;92.82
50550;BME280;36505;52.512;13.460;2022-12-31T01:27:45;100262.22;;;8.29;92.90
50550;BME280;36505;52.512;13.460;2022-12-31T01:30:11;100265.66;;;8.37;93.02
50550;BME280;36505;52.512;13.460;2022-12-31T01:32:36;100267.91;;;8.40;92.83
50550;BME280;36505;52.512;13.460;2022-12-31T01:35:02;100271.22;;;8.42;93.05
50550;BME280;36505;52.512;13.460;2022-12-31T01:37:27;100274.03;;;8.47;92.89
50550;BME280;36505;52.512;13.460;2022-12-31T01:39:53;100260.75;;;8.50;92.67
50550;BME280;36505;52.512;13.460;2022-12-31T01:42:18;100277.22;;;8.55;92.76
50550;BME280;36505;52.512;13.460;2022-12-31T01:44:48;100277.59;;;8.59;92.73
50550;BME280;36505;52.512;13.460;2022-12-31T01:47:17;100278.50;;;8.64;92.71
50550;BME280;36505;52.512;13.460;2022-12-31T01:49:49;100286.47;;;8.66;92.74
50550;BME280;36505;52.512;13.460;2022-12-31T01:52:23;100278.59;;;8.69;92.91
50550;BME280;36505;52.512;13.460;2022-12-31T01:57:54;100282.84;;;8.77;92.96
50550;BME280;36505;52.512;13.460;2022-12-31T02:00:21;100291.63;;;8.79;93.05
50550;BME280;36505;52.512;13.460;2022-12-31T02:02:46;100288.75;;;8.86;93.13
50550;BME280;36505;52.512;13.460;2022-12-31T02:08:09;100293.56;;;8.95;93.24
50550;BME280;36505;52.512;13.460;2022-12-31T02:10:36;100283.72;;;8.94;93.19
50550;BME280;36505;52.512;13.460;2022-12-31T02:13:01;100290.44;;;9.03;93.45
50550;BME280;36505;52.512;13.460;2022-12-31T02:25:49;100302.25;;;9.21;93.37
50550;BME280;36505;52.512;13.460;2022-12-31T02:31:23;100294.72;;;9.28;93.32
50550;BME280;36505;52.512;13.460;2022-12-31T02:34:11;100291.56;;;9.36;93.29
50550;BME280;36505;52.512;13.460;2022-12-31T02:36:42;100299.03;;;9.40;93.14
50550;BME280;36505;52.512;13.460;2022-12-31T02:39:10;100293.28;;;9.42;92.92
50550;BME280;36505;52.512;13.460;2022-12-31T02:41:37;100288.94;;;9.41;92.94
50550;BME280;36505;52.512;13.460;2022-12-31T02:50:01;100285.03;;;9.37;93.03
50550;BME280;36505;52.512;13.460;2022-12-31T02:52:53;100285.03;;;9.37;93.04
50550;BME280;36505;52.512;13.460;2022-12-31T03:00:32;100289.66;;;9.36;92.65
50550;BME280;36505;52.512;13.460;2022-12-31T03:03:19;100295.28;;;9.30;92.53
50550;BME280;36505;52.512;13.460;2022-12-31T03:05:47;100284.28;;;9.25;92.62
50550;BME280;36505;52.512;13.460;2022-12-31T03:08:21;100291.41;;;9.26;92.19
50550;BME280;36505;52.512;13.460;2022-12-31T03:10:47;100276.06;;;9.25;91.91
50550;BME280;36505;52.512;13.460;2022-12-31T03:13:13;100278.22;;;9.23;91.83
50550;BME280;36505;52.512;13.460;2022-12-31T03:15:38;100273.66;;;9.11;91.82
50550;BME280;36505;52.512;13.460;2022-12-31T03:20:39;100275.88;;;9.15;91.94
50550;BME280;36505;52.512;13.460;2022-12-31T03:25:54;100274.25;;;9.14;92.42
50550;BME280;36505;52.512;13.460;2022-12-31T03:28:23;100278.38;;;9.16;92.43
50550;BME280;36505;52.512;13.460;2022-12-31T03:30:52;100279.59;;;9.08;92.53
50550;BME280;36505;52.512;13.460;2022-12-31T03:33:19;100248.06;;;9.01;92.62
50550;BME280;36505;52.512;13.460;2022-12-31T03:35:46;100266.88;;;9.14;92.53
50550;BME280;36505;52.512;13.460;2022-12-31T03:38:12;100267.59;;;9.09;92.72
50550;BME280;36505;52.512;13.460;2022-12-31T03:40:43;100280.94;;;9.23;92.94
50550;BME280;36505;52.512;13.460;2022-12-31T03:43:09;100271.09;;;9.22;93.22
50550;BME280;36505;52.512;13.460;2022-12-31T03:45:35;100282.03;;;9.22;93.31
50550;BME280;36505;52.512;13.460;2022-12-31T03:48:02;100273.59;;;9.23;93.32
50550;BME280;36505;52.512;13.460;2022-12-31T03:50:28;100261.94;;;9.28;93.24
50550;BME280;36505;52.512;13.460;2022-12-31T03:52:54;100255.13;;;9.30;93.20
50550;BME280;36505;52.512;13.460;2022-12-31T03:55:19;100248.59;;;9.31;93.27
50550;BME280;36505;52.512;13.460;2022-12-31T03:57:45;100248.66;;;9.36;93.25
50550;BME280;36505;52.512;13.460;2022-12-31T04:00:16;100243.19;;;9.36;93.00
50550;BME280;36505;52.512;13.460;2022-12-31T04:02:43;100237.50;;;9.38;93.19
50550;BME280;36505;52.512;13.460;2022-12-31T04:05:09;100236.72;;;9.42;92.93
50550;BME280;36505;52.512;13.460;2022-12-31T04:07:35;100244.09;;;9.42;93.19
50550;BME280;36505;52.512;13.460;2022-12-31T04:10:02;100243.13;;;9.48;93.06
50550;BME280;36505;52.512;13.460;2022-12-31T04:12:27;100245.28;;;9.46;93.02
50550;BME280;36505;52.512;13.460;2022-12-31T04:14:53;100250.22;;;9.49;93.05
50550;BME280;36505;52.512;13.460;2022-12-31T04:17:18;100249.75;;;9.52;93.08
50550;BME280;36505;52.512;13.460;2022-12-31T04:19:43;100241.63;;;9.57;92.88
50550;BME280;36505;52.512;13.460;2022-12-31T04:22:09;100237.50;;;9.55;92.96
50550;BME280;36505;52.512;13.460;2022-12-31T04:24:34;100242.78;;;9.61;92.89
50550;BME280;36505;52.512;13.460;2022-12-31T04:27:00;100242.78;;;9.61;92.86
50550;BME280;36505;52.512;13.460;2022-12-31T04:29:26;100243.94;;;9.65;92.75
50550;BME280;36505;52.512;13.460;2022-12-31T04:31:51;100231.16;;;9.71;92.78
50550;BME280;36505;52.512;13.460;2022-12-31T04:34:16;100240.53;;;9.75;92.44
50550;BME280;36505;52.512;13.460;2022-12-31T04:36:42;100264.38;;;9.79;92.52
50550;BME280;36505;52.512;13.460;2022-12-31T04:39:07;100252.63;;;9.79;92.71
50550;BME280;36505;52.512;13.460;2022-12-31T04:41:33;100256.19;;;9.79;92.76
50550;BME280;36505;52.512;13.460;2022-12-31T04:43:59;100252.69;;;9.84;92.74
50550;BME280;36505;52.512;13.460;2022-12-31T04:46:30;100245.31;;;9.84;92.83
50550;BME280;36505;52.512;13.460;2022-12-31T04:48:56;100236.09;;;9.90;92.67
50550;BME280;36505;52.512;13.460;2022-12-31T04:51:22;100241.91;;;9.94;92.94
50550;BME280;36505;52.512;13.460;2022-12-31T04:53:48;100224.13;;;9.97;93.04
50550;BME280;36505;52.512;13.460;2022-12-31T04:56:14;100216.84;;;10.02;93.12
50550;BME280;36505;52.512;13.460;2022-12-31T04:58:40;100205.09;;;10.02;93.34
50550;BME280;36505;52.512;13.460;2022-12-31T05:01:06;100188.47;;;10.08;93.29
50550;BME280;36505;52.512;13.460;2022-12-31T05:03:33;100199.66;;;10.07;93.29
50550;BME280;36505;52.512;13.460;2022-12-31T05:06:06;100201.09;;;10.09;93.43
50550;BME280;36505;52.512;13.460;2022-12-31T05:08:32;100197.44;;;10.04;93.64
50550;BME280;36505;52.512;13.460;2022-12-31T05:10:58;100198.41;;;10.14;93.14
50550;BME280;36505;52.512;13.460;2022-12-31T05:13:24;100196.44;;;10.10;93.34
50550;BME280;36505;52.512;13.460;2022-12-31T05:15:50;100195.41;;;10.16;93.52
50550;BME280;36505;52.512;13.460;2022-12-31T05:18:16;100189.19;;;10.20;93.74
50550;BME280;36505;52.512;13.460;2022-12-31T05:20:41;100186.22;;;10.22;93.38
50550;BME280;36505;52.512;13.460;2022-12-31T05:23:07;100194.47;;;10.27;93.50
50550;BME280;36505;52.512;13.460;2022-12-31T05:25:33;100200.53;;;10.29;93.61
50550;BME280;36505;52.512;13.460;2022-12-31T05:27:58;100212.59;;;10.33;93.50
50550;BME280;36505;52.512;13.460;2022-12-31T05:30:24;100203.31;;;10.34;93.70
50550;BME280;36505;52.512;13.460;2022-12-31T05:32:49;100194.59;;;10.37;93.61
50550;BME280;36505;52.512;13.460;2022-12-31T05:35:15;100198.22;;;10.43;93.69
50550;BME280;36505;52.512;13.460;2022-12-31T05:37:40;100206.75;;;10.46;94.04
50550;BME280;36505;52.512;13.460;2022-12-31T05:40:06;100207.56;;;10.47;94.49
50550;BME280;36505;52.512;13.460;2022-12-31T05:42:32;100217.19;;;10.49;95.83
50550;BME280;36505;52.512;13.460;2022-12-31T05:44:57;100210.06;;;10.48;96.85
50550;BME280;36505;52.512;13.460;2022-12-31T05:47:23;100197.94;;;10.44;99.42
50550;BME280;36505;52.512;13.460;2022-12-31T05:49:48;100187.28;;;10.43;100.00
50550;BME280;36505;52.512;13.460;2022-12-31T05:52:14;100162.28;;;10.34;100.00
50550;BME280;36505;52.512;13.460;2022-12-31T05:54:39;100165.06;;;10.39;100.00
50550;BME280;36505;52.512;13.460;2022-12-31T05:57:05;100169.44;;;10.40;100.00
50550;BME280;36505;52.512;13.460;2022-12-31T05:59:31;100164.56;;;10.42;100.00
50550;BME280;36505;52.512;13.460;2022-12-31T06:01:57;100161.81;;;10.42;100.00
50550;BME280;36505;52.512;13.460;2022-12-31T06:04:23;100160.16;;;10.41;100.00
50550;BME280;36505;52.512;13.460;2022-12-31T06:06:48;100156.59;;;10.41;100.00
50550;BME280;36505;52.512;13.460;2022-12-31T06:09:15;100145.41;;;10.42;100.00
50550;BME280;36505;52.512;13.460;2022-12-31T06:11:41;100147.59;;;10.45;100.00
50550;BME280;36505;52.512;13.460;2022-12-31T06:14:07;100138.56;;;10.45;100.00
50550;BME280;36505;52.512;13.460;2022-12-31T06:16:33;100147.94;;;10.49;100.00
50550;BME280;36505;52.512;13.460;2022-12-31T06:18:58;100125.78;;;10.50;100.00
50550;BME280;36505;52.512;13.460;2022-12-31T06:21:24;100135.06;;;10.49;100.00
50550;BME280;36505;52.512;13.460;2022-12-31T06:23:49;100120.00;;;10.52;100.00
50550;BME280;36505;52.512;13.460;2022-12-31T06:26:14;100121.38;;;10.49;100.00
50550;BME280;36505;52.512;13.460;2022-12-31T06:28:40;100114.53;;;10.52;100.00
50550;BME280;36505;52.512;13.460;2022-12-31T06:31:08;100119.19;;;10.51;100.00
50550;BME280;36505;52.512;13.460;2022-12-31T06:33:35;100125.03;;;10.60;100.00
50550;BME280;36505;52.512;13.460;2022-12-31T06:36:03;100131.38;;;10.65;100.00
50550;BME280;36505;52.512;13.460;2022-12-31T06:38:30;100111.34;;;10.60;100.00
50550;BME280;36505;52.512;13.460;2022-12-31T06:40:56;100124.31;;;10.69;100.00
50550;BME280;36505;52.512;13.460;2022-12-31T06:43:21;100130.66;;;10.75;100.00
50550;BME280;36505;52.512;13.460;2022-12-31T06:45:47;100122.69;;;10.74;100.00
50550;BME280;36505;52.512;13.460;2022-12-31T06:48:13;100129.84;;;10.80;100.00
50550;BME280;36505;52.512;13.460;2022-12-31T06:50:38;100127.19;;;10.85;100.00
50550;BME280;36505;52.512;13.460;2022-12-31T06:53:05;100129.97;;;10.90;100.00
50550;BME280;36505;52.512;13.460;2022-12-31T06:55:30;100121.75;;;10.90;100.00
50550;BME280;36505;52.512;13.460;2022-12-31T06:57:56;100121.25;;;10.98;100.00
50550;BME280;36505;52.512;13.460;2022-12-31T07:00:22;100119.59;;;10.97;100.00
50550;BME280;36505;52.512;13.460;2022-12-31T07:05:40;100110.91;;;11.05;99.95
50550;BME280;36505;52.512;13.460;2022-12-31T07:10:59;100125.84;;;11.24;98.85
50550;BME280;36505;52.512;13.460;2022-12-31T07:21:41;100109.53;;;11.44;97.45
50550;BME280;36505;52.512;13.460;2022-12-31T07:24:08;100107.88;;;11.48;97.25
50550;BME280;36505;52.512;13.460;2022-12-31T07:46:29;100119.38;;;11.93;93.72
50550;BME280;36505;52.512;13.460;2022-12-31T07:48:58;100116.09;;;11.96;93.55
50550;BME280;36505;52.512;13.460;2022-12-31T07:51:23;100117.47;;;11.98;93.22
50550;BME280;36505;52.512;13.460;2022-12-31T07:53:49;100117.47;;;11.98;93.17
50550;BME280;36505;52.512;13.460;2022-12-31T07:56:14;100129.53;;;11.97;92.95
50550;BME280;36505;52.512;13.460;2022-12-31T08:01:10;100145.50;;;12.10;92.71
50550;BME280;36505;52.512;13.460;2022-12-31T08:06:38;100139.50;;;12.23;91.85
50550;BME280;36505;52.512;13.460;2022-12-31T08:10:23;100151.31;;;12.29;91.44
50550;BME280;36505;52.512;13.460;2022-12-31T08:12:34;100107.66;;;12.12;91.12
50550;BME280;36505;52.512;13.460;2022-12-31T08:15:00;100138.16;;;12.36;90.89
50550;BME280;36505;52.512;13.460;2022-12-31T08:17:26;100155.22;;;12.43;90.28
50550;BME280;36505;52.512;13.460;2022-12-31T08:19:52;100152.75;;;12.47;90.26
50550;BME280;36505;52.512;13.460;2022-12-31T08:31:46;100154.44;;;12.63;89.09
50550;BME280;36505;52.512;13.460;2022-12-31T08:42:31;100151.72;;;12.78;88.59
50550;BME280;36505;52.512;13.460;2022-12-31T08:46:04;100150.88;;;12.78;88.53
50550;BME280;36505;52.512;13.460;2022-12-31T08:50:49;100144.00;;;12.90;87.88
50550;BME280;36505;52.512;13.460;2022-12-31T08:53:15;100155.59;;;13.02;87.49
50550;BME280;36505;52.512;13.460;2022-12-31T08:55:41;100162.19;;;13.01;87.43
50550;BME280;36505;52.512;13.460;2022-12-31T09:00:56;100157.75;;;13.11;86.86
50550;BME280;36505;52.512;13.460;2022-12-31T09:09:05;100151.22;;;13.22;86.24
50550;BME280;36505;52.512;13.460;2022-12-31T09:19:33;100163.00;;;13.42;85.16
50550;BME280;36505;52.512;13.460;2022-12-31T09:21:58;100153.38;;;13.45;85.05
50550;BME280;36505;52.512;13.460;2022-12-31T09:24:24;100167.38;;;13.64;84.11
50550;BME280;36505;52.512;13.460;2022-12-31T09:34:46;100150.34;;;14.31;80.96
50550;BME280;36505;52.512;13.460;2022-12-31T09:43:21;100149.53;;;14.75;79.09
50550;BME280;36505;52.512;13.460;2022-12-31T09:56:45;100136.63;;;15.04;77.98
50550;BME280;36505;52.512;13.460;2022-12-31T09:59:19;100133.53;;;15.11;77.56
50550;BME280;36505;52.512;13.460;2022-12-31T10:01:56;100140.31;;;15.23;77.36
50550;BME280;36505;52.512;13.460;2022-12-31T10:04:40;100134.19;;;15.31;76.93
50550;BME280;36505;52.512;13.460;2022-12-31T10:29:36;100176.28;;;15.08;77.83
50550;BME280;36505;52.512;13.460;2022-12-31T10:37:22;100161.50;;;14.99;78.39
50550;BME280;36505;52.512;13.460;2022-12-31T11:16:30;100226.56;;;14.95;81.24
50550;BME280;36505;52.512;13.460;2022-12-31T11:19:01;100233.19;;;14.99;81.00
50550;BME280;36505;52.512;13.460;2022-12-31T11:24:04;100225.69;;;15.05;81.00
50550;BME280;36505;52.512;13.460;2022-12-31T11:29:30;100224.03;;;15.03;80.74
50550;BME280;36505;52.512;13.460;2022-12-31T11:32:14;100232.00;;;15.10;80.58
50550;BME280;36505;52.512;13.460;2022-12-31T11:38:29;100213.72;;;15.19;80.02
50550;BME280;36505;52.512;13.460;2022-12-31T11:41:56;100209.56;;;15.22;79.90
50550;BME280;36505;52.512;13.460;2022-12-31T11:44:09;100207.06;;;15.25;80.00
50550;BME280;36505;52.512;13.460;2022-12-31T11:57:32;100199.44;;;15.46;78.12
50550;BME280;36505;52.512;13.460;2022-12-31T12:00:02;100192.22;;;15.50;76.88
50550;BME280;36505;52.512;13.460;2022-12-31T12:02:36;100198.38;;;15.42;77.10
50550;BME280;36505;52.512;13.460;2022-12-31T12:05:07;100200.31;;;15.41;76.88
50550;BME280;36505;52.512;13.460;2022-12-31T12:07:32;100196.19;;;15.39;76.96
50550;BME280;36505;52.512;13.460;2022-12-31T12:10:02;100195.63;;;15.42;76.69
50550;BME280;36505;52.512;13.460;2022-12-31T12:12:39;100190.09;;;15.42;76.51
50550;BME280;36505;52.512;13.460;2022-12-31T12:15:12;100190.88;;;15.48;76.17
50550;BME280;36505;52.512;13.460;2022-12-31T12:17:41;100193.84;;;15.56;75.24
50550;BME280;36505;52.512;13.460;2022-12-31T12:20:17;100194.84;;;15.65;75.27
50550;BME280;36505;52.512;13.460;2022-12-31T12:22:49;100194.28;;;15.68;74.83
50550;BME280;36505;52.512;13.460;2022-12-31T12:25:23;100197.56;;;15.70;75.09
50550;BME280;36505;52.512;13.460;2022-12-31T12:27:50;100196.44;;;15.71;74.45
50550;BME280;36505;52.512;13.460;2022-12-31T12:30:21;100196.72;;;15.70;74.98
50550;BME280;36505;52.512;13.460;2022-12-31T12:35:26;100197.28;;;15.72;74.33
50550;BME280;36505;52.512;13.460;2022-12-31T12:38:04;100194.22;;;15.73;74.27
50550;BME280;36505;52.512;13.460;2022-12-31T12:40:30;100195.34;;;15.72;74.39
50550;BME280;36505;52.512;13.460;2022-12-31T12:42:56;100185.66;;;15.75;74.43
50550;BME280;36505;52.512;13.460;2022-12-31T12:45:44;100195.59;;;15.76;74.46
50550;BME280;36505;52.512;13.460;2022-12-31T12:48:18;100187.13;;;15.67;74.54
50550;BME280;36505;52.512;13.460;2022-12-31T12:50:46;100190.88;;;15.76;74.08
50550;BME280;36505;52.512;13.460;2022-12-31T12:53:21;100187.59;;;15.74;74.43
50550;BME280;36505;52.512;13.460;2022-12-31T12:58:51;100171.59;;;15.71;74.23
50550;BME280;36505;52.512;13.460;2022-12-31T13:07:27;100187.34;;;15.71;74.43
50550;BME280;36505;52.512;13.460;2022-12-31T13:20:46;100191.47;;;15.73;73.51
50550;BME280;36505;52.512;13.460;2022-12-31T13:23:25;100201.69;;;15.73;73.63
50550;BME280;36505;52.512;13.460;2022-12-31T13:28:32;100205.50;;;15.77;73.14
50550;BME280;36505;52.512;13.460;2022-12-31T13:31:12;100220.09;;;15.83;72.85
50550;BME280;36505;52.512;13.460;2022-12-31T13:33:46;100212.66;;;15.78;73.04
50550;BME280;36505;52.512;13.460;2022-12-31T13:36:16;100205.00;;;15.75;72.90
50550;BME280;36505;52.512;13.460;2022-12-31T13:38:47;100210.50;;;15.75;73.30
50550;BME280;36505;52.512;13.460;2022-12-31T13:41:20;100204.66;;;15.76;73.15
50550;BME280;36505;52.512;13.460;2022-12-31T13:49:32;100233.06;;;15.82;72.39
50550;BME280;36505;52.512;13.460;2022-12-31T13:55:12;100244.41;;;15.80;72.82
50550;BME280;36505;52.512;13.460;2022-12-31T13:57:44;100254.63;;;15.80;72.81
50550;BME280;36505;52.512;13.460;2022-12-31T14:02:59;100267.09;;;15.72;72.85
50550;BME280;36505;52.512;13.460;2022-12-31T14:05:34;100277.59;;;15.75;72.66
50550;BME280;36505;52.512;13.460;2022-12-31T14:08:04;100286.69;;;15.76;72.62
50550;BME280;36505;52.512;13.460;2022-12-31T14:10:45;100301.88;;;15.73;72.91
50550;BME280;36505;52.512;13.460;2022-12-31T14:18:42;100323.97;;;15.73;73.45
50550;BME280;36505;52.512;13.460;2022-12-31T14:26:35;100330.97;;;15.61;73.92
50550;BME280;36505;52.512;13.460;2022-12-31T14:40:01;100338.44;;;15.60;73.64
50550;BME280;36505;52.512;13.460;2022-12-31T14:51:00;100361.94;;;15.53;73.87
50550;BME280;36505;52.512;13.460;2022-12-31T14:53:27;100357.78;;;15.50;73.72
50550;BME280;36505;52.512;13.460;2022-12-31T14:56:01;100365.81;;;15.47;73.79
50550;BME280;36505;52.512;13.460;2022-12-31T15:01:03;100359.19;;;15.42;73.84
50550;BME280;36505;52.512;13.460;2022-12-31T15:03:42;100378.28;;;15.39;73.80
50550;BME280;36505;52.512;13.460;2022-12-31T15:22:56;100377.88;;;15.12;75.27
50550;BME280;36505;52.512;13.460;2022-12-31T15:25:29;100378.97;;;15.11;75.36
50550;BME280;36505;52.512;13.460;2022-12-31T15:28:00;100379.00;;;15.06;75.71
50550;BME280;36505;52.512;13.460;2022-12-31T15:30:34;100380.09;;;15.05;75.74
50550;BME280;36505;52.512;13.460;2022-12-31T15:33:04;100388.38;;;15.05;75.86
50550;BME280;36505;52.512;13.460;2022-12-31T15:35:48;100395.84;;;14.99;76.19
50550;BME280;36505;52.512;13.460;2022-12-31T15:40:48;100392.00;;;14.95;76.22
50550;BME280;36505;52.512;13.460;2022-12-31T15:45:49;100388.13;;;14.96;75.77
50550;BME280;36505;52.512;13.460;2022-12-31T15:50:48;100392.81;;;15.00;75.78
50550;BME280;36505;52.512;13.460;2022-12-31T15:53:28;100393.34;;;15.02;75.84
50550;BME280;36505;52.512;13.460;2022-12-31T15:55:58;100375.44;;;14.95;76.03
50550;BME280;36505;52.512;13.460;2022-12-31T15:58:32;100385.66;;;14.99;75.80
50550;BME280;36505;52.512;13.460;2022-12-31T16:01:18;100389.50;;;14.98;75.58
50550;BME280;36505;52.512;13.460;2022-12-31T16:03:47;100394.75;;;15.00;75.54
50550;BME280;36505;52.512;13.460;2022-12-31T16:06:14;100407.94;;;15.03;74.94
50550;BME280;36505;52.512;13.460;2022-12-31T16:08:45;100401.63;;;15.08;74.87
50550;BME280;36505;52.512;13.460;2022-12-31T16:11:12;100405.47;;;15.07;74.75
50550;BME280;36505;52.512;13.460;2022-12-31T16:13:47;100409.06;;;15.07;74.65
50550;BME280;36505;52.512;13.460;2022-12-31T16:16:27;100414.53;;;15.12;74.28
50550;BME280;36505;52.512;13.460;2022-12-31T16:18:55;100409.84;;;15.13;74.25
50550;BME280;36505;52.512;13.460;2022-12-31T16:21:37;100411.50;;;15.14;74.40
50550;BME280;36505;52.512;13.460;2022-12-31T16:24:28;100413.72;;;15.12;74.50
50550;BME280;36505;52.512;13.460;2022-12-31T16:26:58;100404.91;;;15.05;74.70
50550;BME280;36505;52.512;13.460;2022-12-31T16:29:24;100413.16;;;15.10;74.64
50550;BME280;36505;52.512;13.460;2022-12-31T16:31:51;100410.41;;;15.15;74.25
50550;BME280;36505;52.512;13.460;2022-12-31T16:34:23;100417.84;;;15.14;74.28
50550;BME280;36505;52.512;13.460;2022-12-31T16:36:59;100420.03;;;15.17;74.21
50550;BME280;36505;52.512;13.460;2022-12-31T16:44:39;100420.03;;;15.17;74.29
50550;BME280;36505;52.512;13.460;2022-12-31T16:47:07;100416.72;;;15.20;73.79
50550;BME280;36505;52.512;13.460;2022-12-31T16:49:37;100420.31;;;15.21;73.79
50550;BME280;36505;52.512;13.460;2022-12-31T16:52:05;100424.97;;;15.25;73.65
50550;BME280;36505;52.512;13.460;2022-12-31T16:54:34;100418.34;;;15.26;73.77
50550;BME280;36505;52.512;13.460;2022-12-31T16:57:02;100417.78;;;15.24;73.67
50550;BME280;36505;52.512;13.460;2022-12-31T16:59:43;100415.31;;;15.28;73.36
50550;BME280;36505;52.512;13.460;2022-12-31T17:02:19;100404.28;;;15.28;73.36
50550;BME280;36505;52.512;13.460;2022-12-31T17:04:47;100401.22;;;15.29;73.12
50550;BME280;36505;52.512;13.460;2022-12-31T17:12:34;100398.25;;;15.21;72.92
50550;BME280;36505;52.512;13.460;2022-12-31T17:15:01;100408.69;;;15.24;72.96
50550;BME280;36505;52.512;13.460;2022-12-31T17:17:29;100396.00;;;15.23;72.74
50550;BME280;36505;52.512;13.460;2022-12-31T17:19:59;100418.91;;;15.23;72.94
50550;BME280;36505;52.512;13.460;2022-12-31T17:22:28;100415.31;;;15.23;72.76
50550;BME280;36505;52.512;13.460;2022-12-31T17:24:59;100407.03;;;15.23;72.85
50550;BME280;36505;52.512;13.460;2022-12-31T17:27:26;100428.28;;;15.22;73.05
50550;BME280;36505;52.512;13.460;2022-12-31T17:29:51;100426.63;;;15.26;72.89
50550;BME280;36505;52.512;13.460;2022-12-31T17:32:36;100442.59;;;15.34;72.28
50550;BME280;36505;52.512;13.460;2022-12-31T17:35:25;100448.09;;;15.29;72.46
50550;BME280;36505;52.512;13.460;2022-12-31T17:37:51;100442.84;;;15.33;72.21
50550;BME280;36505;52.512;13.460;2022-12-31T17:40:37;100422.19;;;15.25;72.35
50550;BME280;36505;52.512;13.460;2022-12-31T17:43:04;100446.41;;;15.38;71.93
50550;BME280;36505;52.512;13.460;2022-12-31T17:45:35;100442.28;;;15.41;71.64
50550;BME280;36505;52.512;13.460;2022-12-31T17:48:00;100447.25;;;15.39;71.75
50550;BME280;36505;52.512;13.460;2022-12-31T17:50:26;100458.53;;;15.42;71.70
50550;BME280;36505;52.512;13.460;2022-12-31T17:52:58;100450.56;;;15.41;71.71
50550;BME280;36505;52.512;13.460;2022-12-31T17:55:25;100451.38;;;15.41;71.59
50550;BME280;36505;52.512;13.460;2022-12-31T17:57:53;100445.88;;;15.41;71.21
50550;BME280;36505;52.512;13.460;2022-12-31T18:00:22;100444.22;;;15.40;71.72
50550;BME280;36505;52.512;13.460;2022-12-31T18:02:47;100421.84;;;15.37;71.40
50550;BME280;36505;52.512;13.460;2022-12-31T18:05:18;100447.56;;;15.32;71.72
50550;BME280;36505;52.512;13.460;2022-12-31T18:07:44;100444.25;;;15.30;71.88
50550;BME280;36505;52.512;13.460;2022-12-31T18:10:11;100456.38;;;15.29;71.96
50550;BME280;36505;52.512;13.460;2022-12-31T18:12:37;100438.47;;;15.27;71.70
50550;BME280;36505;52.512;13.460;2022-12-31T18:15:03;100445.66;;;15.23;72.00
50550;BME280;36505;52.512;13.460;2022-12-31T18:17:29;100434.91;;;15.21;71.96
50550;BME280;36505;52.512;13.460;2022-12-31T18:19:54;100453.41;;;15.21;71.96